createdAt,value
2022-12-04T00:00:32.331Z,98543.69
2022-12-04T00:01:39.283Z,98542.00
2022-12-04T00:02:42.993Z,98538.34
2022-12-04T00:03:49.753Z,98540.66
2022-12-04T00:04:53.374Z,98542.44
2022-12-04T00:06:07.494Z,98540.13
2022-12-04T00:07:11.952Z,98536.47
2022-12-04T00:08:18.178Z,98538.78
2022-12-04T00:09:21.662Z,98539.75
2022-12-04T00:10:27.798Z,98551.47
2022-12-04T00:11:33.829Z,98550.72
2022-12-04T00:12:50.036Z,98548.31
2022-12-04T00:14:01.605Z,98542.56
2022-12-04T00:15:25.284Z,98545.81
2022-12-04T00:16:30.835Z,98545.72
2022-12-04T00:17:36.887Z,98548.94
2022-12-04T00:18:41.620Z,98542.22
2022-12-04T00:19:47.724Z,98544.63
2022-12-04T00:20:51.305Z,98551.47
2022-12-04T00:21:57.314Z,98542.44
2022-12-04T00:23:00.803Z,98549.38
2022-12-04T00:24:09.312Z,98553.75
2022-12-04T00:25:12.857Z,98543.72
2022-12-04T00:26:23.010Z,98543.72
2022-12-04T00:27:26.488Z,98539.94
2022-12-04T00:28:32.707Z,98540.16
2022-12-04T00:29:42.228Z,98539.63
2022-12-04T00:30:46.752Z,98544.75
2022-12-04T00:31:52.992Z,98545.50
2022-12-04T00:32:56.537Z,98546.84
2022-12-04T00:34:07.959Z,98545.50
2022-12-04T00:35:12.770Z,98539.81
2022-12-04T00:36:24.311Z,98541.31
2022-12-04T00:37:28.482Z,98535.84
2022-12-04T00:38:34.652Z,98543.72
2022-12-04T00:39:38.111Z,98540.56
2022-12-04T00:40:53.276Z,98544.53
2022-12-04T00:41:56.766Z,98544.97
2022-12-04T00:43:02.796Z,98543.16
2022-12-04T00:44:08.763Z,98544.22
2022-12-04T00:45:15.250Z,98540.56
2022-12-04T00:46:23.175Z,98553.44
2022-12-04T00:47:26.784Z,98552.31
2022-12-04T00:48:33.318Z,98548.72
2022-12-04T00:49:36.988Z,98554.78
2022-12-04T00:50:43.202Z,98551.66
2022-12-04T00:52:04.154Z,98550.31
2022-12-04T00:53:09.434Z,98543.09
2022-12-04T00:54:16.402Z,98549.16
2022-12-04T00:55:19.891Z,98548.84
2022-12-04T00:56:31.108Z,98558.47
2022-12-04T00:57:34.858Z,98540.97
2022-12-04T00:58:45.104Z,98547.69
2022-12-04T00:59:48.723Z,98542.47
2022-12-04T01:01:07.634Z,98544.13
2022-12-04T01:02:13.925Z,98541.84
2022-12-04T01:03:17.628Z,98548.50
2022-12-04T01:04:25.749Z,98539.75
2022-12-04T01:05:29.190Z,98535.94
2022-12-04T01:06:37.893Z,98533.66
2022-12-04T01:07:41.447Z,98534.38
2022-12-04T01:08:47.626Z,98535.44
2022-12-04T01:09:54.929Z,98529.88
2022-12-04T01:10:58.938Z,98532.06
2022-12-04T01:12:04.988Z,98533.53
2022-12-04T01:13:08.493Z,98542.44
2022-12-04T01:14:15.000Z,98547.25
2022-12-04T01:15:19.765Z,98545.06
2022-12-04T01:16:33.270Z,98547.69
2022-12-04T01:17:37.482Z,98534.50
2022-12-04T01:18:43.626Z,98535.94
2022-12-04T01:19:47.188Z,98532.19
2022-12-04T01:20:56.241Z,98530.31
2022-12-04T01:22:00.040Z,98535.56
2022-12-04T01:23:06.819Z,98529.44
2022-12-04T01:24:10.569Z,98532.59
2022-12-04T01:25:17.082Z,98529.28
2022-12-04T01:26:23.988Z,98534.28
2022-12-04T01:27:30.505Z,98530.09
2022-12-04T01:28:34.584Z,98528.00
2022-12-04T01:29:42.160Z,98523.81
2022-12-04T01:30:45.852Z,98527.38
2022-12-04T01:31:55.480Z,98526.97
2022-12-04T01:32:59.070Z,98518.97
2022-12-04T01:34:09.788Z,98516.34
2022-12-04T01:35:14.982Z,98517.22
2022-12-04T01:36:25.658Z,98525.91
2022-12-04T01:37:32.635Z,98527.38
2022-12-04T01:38:39.959Z,98528.09
2022-12-04T01:39:43.672Z,98532.81
2022-12-04T01:40:49.883Z,98529.66
2022-12-04T01:41:53.420Z,98521.28
2022-12-04T01:43:02.333Z,98526.53
2022-12-04T01:44:22.714Z,98521.94
2022-12-04T01:45:45.088Z,98522.56
2022-12-04T01:46:57.892Z,98520.47
2022-12-04T01:48:16.068Z,98523.16
2022-12-04T01:49:28.956Z,98523.16
2022-12-04T01:50:32.905Z,98532.19
2022-12-04T01:51:45.373Z,98521.72
2022-12-04T01:52:49.074Z,98528.19
2022-12-04T01:54:02.559Z,98522.78
2022-12-04T01:55:09.805Z,98525.47
2022-12-04T01:56:19.717Z,98522.03
2022-12-04T01:57:28.690Z,98525.47
2022-12-04T01:58:42.624Z,98515.31
2022-12-04T01:59:55.729Z,98525.47
2022-12-04T02:01:09.570Z,98528.84
2022-12-04T02:02:23.194Z,98524.53
2022-12-04T02:03:30.433Z,98530.19
2022-12-04T02:04:35.958Z,98527.34
2022-12-04T02:05:42.794Z,98522.84
2022-12-04T02:06:46.551Z,98528.94
2022-12-04T02:07:59.188Z,98525.34
2022-12-04T02:09:05.688Z,98523.47
2022-12-04T02:10:14.605Z,98523.59
2022-12-04T02:11:38.603Z,98520.31
2022-12-04T02:13:02.044Z,98509.22
2022-12-04T02:14:26.385Z,98518.75
2022-12-04T02:15:46.289Z,98515.00
2022-12-04T02:17:08.662Z,98507.06
2022-12-04T02:18:30.589Z,98506.00
2022-12-04T02:20:12.215Z,98509.75
2022-12-04T02:21:30.650Z,98511.34
2022-12-04T02:23:18.586Z,98504.97
2022-12-04T02:24:51.054Z,98515.34
2022-12-04T02:26:17.157Z,98512.50
2022-12-04T02:28:02.611Z,98510.50
2022-12-04T02:29:15.991Z,98510.09
2022-12-04T02:30:22.780Z,98511.47
2022-12-04T02:31:35.205Z,98506.84
2022-12-04T02:33:04.323Z,98518.97
2022-12-04T02:34:18.800Z,98514.47
2022-12-04T02:35:34.160Z,98511.66
2022-12-04T02:36:53.912Z,98506.53
2022-12-04T02:38:13.835Z,98498.69
2022-12-04T02:39:25.863Z,98500.56
2022-12-04T02:40:46.958Z,98505.78
2022-12-04T02:42:00.287Z,98503.91
2022-12-04T02:43:19.881Z,98507.28
2022-12-04T02:44:30.938Z,98502.88
2022-12-04T02:45:47.840Z,98513.22
2022-12-04T02:47:02.369Z,98502.56
2022-12-04T02:48:12.101Z,98505.06
2022-12-04T02:49:25.754Z,98504.22
2022-12-04T02:50:39.700Z,98508.94
2022-12-04T02:51:50.234Z,98499.06
2022-12-04T02:53:06.003Z,98502.03
2022-12-04T02:54:24.584Z,98493.53
2022-12-04T02:55:38.867Z,98499.72
2022-12-04T02:56:50.863Z,98493.66
2022-12-04T02:58:08.623Z,98497.00
2022-12-04T02:59:23.511Z,98501.19
2022-12-04T03:00:34.694Z,98497.00
2022-12-04T03:01:49.201Z,98498.25
2022-12-04T03:03:04.786Z,98496.47
2022-12-04T03:04:20.405Z,98498.25
2022-12-04T03:05:41.843Z,98491.34
2022-12-04T03:06:54.674Z,98499.72
2022-12-04T03:08:08.479Z,98498.03
2022-12-04T03:09:21.445Z,98493.56
2022-12-04T03:10:37.036Z,98500.13
2022-12-04T03:11:54.777Z,98497.53
2022-12-04T03:13:10.920Z,98500.22
2022-12-04T03:14:25.034Z,98493.63
2022-12-04T03:15:40.977Z,98497.53
2022-12-04T03:16:54.396Z,98495.53
2022-12-04T03:18:06.438Z,98496.34
2022-12-04T03:19:19.653Z,98487.97
2022-12-04T03:20:26.270Z,98491.56
2022-12-04T03:21:40.986Z,98489.25
2022-12-04T03:22:55.633Z,98483.47
2022-12-04T03:24:16.015Z,98491.97
2022-12-04T03:25:20.078Z,98483.91
2022-12-04T03:26:36.555Z,98482.75
2022-12-04T03:28:00.921Z,98486.00
2022-12-04T03:29:21.663Z,98482.34
2022-12-04T03:30:25.292Z,98480.56
2022-12-04T03:31:45.849Z,98479.28
2022-12-04T03:32:57.169Z,98475.00
2022-12-04T03:34:10.953Z,98468.28
2022-12-04T03:35:22.807Z,98464.63
2022-12-04T03:36:39.589Z,98467.03
2022-12-04T03:37:55.710Z,98465.47
2022-12-04T03:39:15.932Z,98470.91
2022-12-04T03:40:29.903Z,98472.78
2022-12-04T03:42:01.967Z,98473.19
2022-12-04T03:43:17.391Z,98477.72
2022-12-04T03:44:38.816Z,98478.44
2022-12-04T03:45:52.684Z,98481.50
2022-12-04T03:47:09.463Z,98481.59
2022-12-04T03:48:27.384Z,98478.78
2022-12-04T03:49:44.202Z,98483.47
2022-12-04T03:51:01.317Z,98484.63
2022-12-04T03:52:15.793Z,98483.91
2022-12-04T03:53:33.866Z,98483.78
2022-12-04T03:54:48.895Z,98475.84
2022-12-04T03:56:05.349Z,98486.72
2022-12-04T03:57:19.363Z,98480.66
2022-12-04T03:58:33.352Z,98478.69
2022-12-04T03:59:55.297Z,98490.38
2022-12-04T04:01:11.058Z,98476.78
2022-12-04T04:02:23.083Z,98475.72
2022-12-04T04:03:37.273Z,98480.03
2022-12-04T04:04:48.497Z,98480.25
2022-12-04T04:06:03.609Z,98478.25
2022-12-04T04:07:20.611Z,98476.25
2022-12-04T04:08:37.886Z,98468.31
2022-12-04T04:09:50.325Z,98465.78
2022-12-04T04:11:05.178Z,98472.59
2022-12-04T04:12:17.047Z,98469.56
2022-12-04T04:13:44.323Z,98476.78
2022-12-04T04:15:14.426Z,98473.75
2022-12-04T04:16:42.422Z,98479.59
2022-12-04T04:18:06.259Z,98477.00
2022-12-04T04:19:31.847Z,98467.34
2022-12-04T04:20:58.833Z,98475.63
2022-12-04T04:22:25.318Z,98473.84
2022-12-04T04:24:04.840Z,98485.59
2022-12-04T04:25:19.651Z,98474.97
2022-12-04T04:26:27.326Z,98478.94
2022-12-04T04:27:33.495Z,98476.69
2022-12-04T04:28:40.675Z,98473.31
2022-12-04T04:29:52.607Z,98477.28
2022-12-04T04:31:13.246Z,98478.47
2022-12-04T04:32:38.150Z,98474.47
2022-12-04T04:33:59.918Z,98476.69
2022-12-04T04:35:22.198Z,98469.97
2022-12-04T04:36:45.163Z,98473.94
2022-12-04T04:38:04.749Z,98474.97
2022-12-04T04:39:25.825Z,98478.25
2022-12-04T04:40:44.494Z,98474.59
2022-12-04T04:41:57.027Z,98476.38
2022-12-04T04:43:14.411Z,98480.66
2022-12-04T04:44:39.847Z,98484.00
2022-12-04T04:45:54.774Z,98476.91
2022-12-04T04:47:09.015Z,98474.97
2022-12-04T04:48:24.735Z,98483.56
2022-12-04T04:49:38.655Z,98487.97
2022-12-04T04:50:48.050Z,98484.63
2022-12-04T04:51:53.175Z,98486.19
2022-12-04T04:53:08.625Z,98481.47
2022-12-04T04:54:18.364Z,98484.84
2022-12-04T04:55:27.277Z,98480.97
2022-12-04T04:56:31.984Z,98479.59
2022-12-04T04:57:39.798Z,98483.56
2022-12-04T04:58:44.233Z,98489.25
2022-12-04T04:59:50.338Z,98490.19
2022-12-04T05:01:05.757Z,98490.50
2022-12-04T05:02:15.648Z,98489.78
2022-12-04T05:03:19.169Z,98492.47
2022-12-04T05:04:25.721Z,98498.97
2022-12-04T05:05:29.496Z,98493.22
2022-12-04T05:06:36.590Z,98486.63
2022-12-04T05:07:40.063Z,98494.28
2022-12-04T05:08:49.430Z,98501.81
2022-12-04T05:09:52.975Z,98498.03
2022-12-04T05:10:59.474Z,98490.50
2022-12-04T05:12:03.875Z,98490.81
2022-12-04T05:13:14.648Z,98496.06
2022-12-04T05:14:18.164Z,98499.50
2022-12-04T05:15:24.267Z,98503.38
2022-12-04T05:16:27.776Z,98493.44
2022-12-04T05:17:41.166Z,98490.72
2022-12-04T05:19:06.035Z,98488.09
2022-12-04T05:20:12.014Z,98486.94
2022-12-04T05:21:19.186Z,98487.78
2022-12-04T05:22:27.927Z,98483.19
2022-12-04T05:23:49.079Z,98475.00
2022-12-04T05:24:54.449Z,98484.41
2022-12-04T05:26:03.778Z,98474.47
2022-12-04T05:27:07.219Z,98479.00
2022-12-04T05:28:13.424Z,98477.50
2022-12-04T05:29:16.865Z,98481.91
2022-12-04T05:30:30.283Z,98476.69
2022-12-04T05:31:33.941Z,98479.59
2022-12-04T05:32:43.500Z,98484.63
2022-12-04T05:33:47.042Z,98489.47
2022-12-04T05:34:54.448Z,98490.06
2022-12-04T05:36:00.332Z,98492.91
2022-12-04T05:37:06.683Z,98486.63
2022-12-04T05:38:10.079Z,98490.72
2022-12-04T05:39:17.172Z,98490.00
2022-12-04T05:40:21.171Z,98482.22
2022-12-04T05:41:28.165Z,98501.19
2022-12-04T05:42:31.847Z,98488.63
2022-12-04T05:43:39.128Z,98497.63
2022-12-04T05:44:42.684Z,98494.03
2022-12-04T05:45:49.304Z,98498.88
2022-12-04T05:46:53.815Z,98497.84
2022-12-04T05:48:02.697Z,98501.38
2022-12-04T05:49:06.469Z,98502.13
2022-12-04T05:50:16.248Z,98503.47
2022-12-04T05:51:19.710Z,98499.94
2022-12-04T05:52:27.784Z,98496.66
2022-12-04T05:53:31.265Z,98504.31
2022-12-04T05:54:37.525Z,98500.88
2022-12-04T05:55:41.271Z,98504.84
2022-12-04T05:56:47.467Z,98506.09
2022-12-04T05:57:51.813Z,98501.81
2022-12-04T05:58:58.065Z,98505.78
2022-12-04T06:00:01.619Z,98499.72
2022-12-04T06:01:15.123Z,98500.56
2022-12-04T06:02:19.640Z,98495.31
2022-12-04T06:03:29.261Z,98504.13
2022-12-04T06:04:33.009Z,98499.63
2022-12-04T06:05:39.156Z,98502.97
2022-12-04T06:06:44.056Z,98498.69
2022-12-04T06:07:50.275Z,98495.63
2022-12-04T06:08:58.780Z,98493.66
2022-12-04T06:10:05.071Z,98496.38
2022-12-04T06:11:13.788Z,98491.44
2022-12-04T06:12:19.954Z,98490.28
2022-12-04T06:13:23.523Z,98490.28
2022-12-04T06:14:37.814Z,98493.84
2022-12-04T06:15:43.229Z,98488.41
2022-12-04T06:16:50.812Z,98494.06
2022-12-04T06:17:56.342Z,98489.47
2022-12-04T06:19:13.858Z,98487.47
2022-12-04T06:20:18.820Z,98490.00
2022-12-04T06:21:28.819Z,98487.69
2022-12-04T06:22:32.572Z,98502.34
2022-12-04T06:23:38.955Z,98494.47
2022-12-04T06:24:42.758Z,98493.66
2022-12-04T06:27:27.312Z,98498.25
2022-12-04T06:28:31.732Z,98494.25
2022-12-04T06:29:38.197Z,98488.63
2022-12-04T06:30:41.783Z,98498.97
2022-12-04T06:31:48.944Z,98501.50
2022-12-04T06:32:52.976Z,98491.78
2022-12-04T06:34:01.407Z,98503.28
2022-12-04T06:35:08.749Z,98498.25
2022-12-04T06:36:19.710Z,98510.28
2022-12-04T06:37:25.971Z,98503.28
2022-12-04T06:38:32.315Z,98517.75
2022-12-04T06:39:36.524Z,98516.47
2022-12-04T06:40:43.583Z,98517.09
2022-12-04T06:41:47.869Z,98520.47
2022-12-04T06:42:54.986Z,98517.97
2022-12-04T06:43:59.098Z,98513.66
2022-12-04T06:45:05.557Z,98517.84
2022-12-04T06:46:12.864Z,98518.88
2022-12-04T06:47:19.013Z,98512.16
2022-12-04T06:48:23.476Z,98509.56
2022-12-04T06:49:29.657Z,98504.88
2022-12-04T06:50:35.824Z,98514.28
2022-12-04T06:51:42.567Z,98508.50
2022-12-04T06:52:46.114Z,98514.47
2022-12-04T06:53:53.648Z,98511.03
2022-12-04T06:54:57.251Z,98509.03
2022-12-04T06:56:07.145Z,98510.72
2022-12-04T06:57:13.655Z,98518.16
2022-12-04T06:58:23.638Z,98508.72
2022-12-04T06:59:28.227Z,98515.44
2022-12-04T07:00:34.441Z,98517.72
2022-12-04T07:01:38.099Z,98514.16
2022-12-04T07:02:46.876Z,98515.63
2022-12-04T07:03:51.994Z,98516.28
2022-12-04T07:05:03.120Z,98513.75
2022-12-04T07:06:21.987Z,98516.88
2022-12-04T07:07:27.984Z,98517.72
2022-12-04T07:08:38.988Z,98515.63
2022-12-04T07:09:43.077Z,98516.34
2022-12-04T07:10:58.911Z,98517.72
2022-12-04T07:12:07.993Z,98513.97
2022-12-04T07:13:14.901Z,98510.91
2022-12-04T07:14:20.933Z,98511.41
2022-12-04T07:15:30.643Z,98514.69
2022-12-04T07:16:40.723Z,98515.59
2022-12-04T07:17:50.438Z,98502.63
2022-12-04T07:18:56.854Z,98511.41
2022-12-04T07:20:03.134Z,98507.75
2022-12-04T07:21:08.749Z,98512.88
2022-12-04T07:22:18.988Z,98507.66
2022-12-04T07:23:22.973Z,98503.88
2022-12-04T07:24:29.173Z,98510.91
2022-12-04T07:25:33.024Z,98504.59
2022-12-04T07:26:39.410Z,98512.69
2022-12-04T07:27:44.052Z,98504.84
2022-12-04T07:28:51.938Z,98519.72
2022-12-04T07:30:00.330Z,98511.25
2022-12-04T07:31:06.907Z,98514.47
2022-12-04T07:32:20.633Z,98509.75
2022-12-04T07:33:25.362Z,98509.53
2022-12-04T07:34:33.065Z,98507.06
2022-12-04T07:35:40.434Z,98501.47
2022-12-04T07:36:54.404Z,98496.16
2022-12-04T07:38:00.578Z,98496.38
2022-12-04T07:39:07.656Z,98496.47
2022-12-04T07:40:13.699Z,98502.22
2022-12-04T07:41:25.870Z,98499.06
2022-12-04T07:42:30.024Z,98500.56
2022-12-04T07:43:38.828Z,98511.03
2022-12-04T07:44:43.546Z,98505.34
2022-12-04T07:45:49.742Z,98505.16
2022-12-04T07:46:54.001Z,98509.97
2022-12-04T07:48:00.252Z,98510.06
2022-12-04T07:49:03.743Z,98507.06
2022-12-04T07:50:11.937Z,98512.69
2022-12-04T07:51:20.162Z,98513.00
2022-12-04T07:52:27.958Z,98524.13
2022-12-04T07:53:42.591Z,98522.53
2022-12-04T07:54:50.141Z,98525.78
2022-12-04T07:55:55.419Z,98531.53
2022-12-04T07:57:01.824Z,98528.78
2022-12-04T07:58:05.770Z,98546.00
2022-12-04T07:59:12.064Z,98541.06
2022-12-04T08:00:19.799Z,98533.22
2022-12-04T08:01:28.277Z,98529.66
2022-12-04T08:02:33.229Z,98532.28
2022-12-04T08:03:45.243Z,98527.88
2022-12-04T08:04:51.079Z,98537.22
2022-12-04T08:06:02.196Z,98533.09
2022-12-04T08:07:09.179Z,98532.16
2022-12-04T08:08:12.761Z,98535.41
2022-12-04T08:09:21.487Z,98536.13
2022-12-04T08:10:29.239Z,98540.84
2022-12-04T08:11:40.368Z,98542.22
2022-12-04T08:12:44.732Z,98542.09
2022-12-04T08:13:57.768Z,98541.56
2022-12-04T08:15:13.213Z,98544.94
2022-12-04T08:16:17.348Z,98546.28
2022-12-04T08:17:25.463Z,98542.84
2022-12-04T08:18:30.318Z,98536.13
2022-12-04T08:19:38.093Z,98544.09
2022-12-04T08:20:41.793Z,98544.09
2022-12-04T08:21:48.222Z,98538.97
2022-12-04T08:22:51.806Z,98543.97
2022-12-04T08:24:01.425Z,98540.75
2022-12-04T08:25:11.279Z,98539.28
2022-12-04T08:26:18.560Z,98529.66
2022-12-04T08:27:24.755Z,98535.28
2022-12-04T08:28:32.290Z,98528.22
2022-12-04T08:29:39.833Z,98530.03
2022-12-04T08:30:44.990Z,98525.00
2022-12-04T08:31:52.080Z,98528.16
2022-12-04T08:32:56.043Z,98536.13
2022-12-04T08:34:09.347Z,98540.00
2022-12-04T08:35:16.647Z,98536.13
2022-12-04T08:36:25.030Z,98528.53
2022-12-04T08:37:30.718Z,98528.13
2022-12-04T08:38:37.558Z,98532.09
2022-12-04T08:39:44.450Z,98528.75
2022-12-04T08:40:51.919Z,98520.69
2022-12-04T08:41:58.393Z,98524.78
2022-12-04T08:43:02.212Z,98531.47
2022-12-04T08:44:08.573Z,98528.13
2022-12-04T08:45:13.559Z,98524.75
2022-12-04T08:46:22.783Z,98524.91
2022-12-04T08:47:30.330Z,98529.81
2022-12-04T08:48:35.726Z,98531.31
2022-12-04T08:49:43.153Z,98528.25
2022-12-04T08:50:46.797Z,98525.75
2022-12-04T08:51:53.854Z,98532.38
2022-12-04T08:52:58.377Z,98527.03
2022-12-04T08:54:08.997Z,98528.94
2022-12-04T08:55:12.650Z,98519.28
2022-12-04T08:56:21.477Z,98528.19
2022-12-04T08:57:27.297Z,98523.19
2022-12-04T08:58:35.781Z,98520.97
2022-12-04T08:59:39.277Z,98523.31
2022-12-04T09:00:45.539Z,98523.97
2022-12-04T09:01:52.636Z,98525.72
2022-12-04T09:02:59.689Z,98520.38
2022-12-04T09:04:06.042Z,98522.88
2022-12-04T09:05:09.915Z,98529.91
2022-12-04T09:06:26.157Z,98524.09
2022-12-04T09:07:30.166Z,98525.50
2022-12-04T09:08:38.795Z,98525.66
2022-12-04T09:09:54.712Z,98518.03
2022-12-04T09:11:08.587Z,98518.44
2022-12-04T09:12:18.148Z,98526.63
2022-12-04T09:13:21.774Z,98522.94
2022-12-04T09:14:29.919Z,98527.25
2022-12-04T09:15:34.165Z,98514.81
2022-12-04T09:16:40.339Z,98524.09
2022-12-04T09:17:44.651Z,98516.75
2022-12-04T09:18:52.360Z,98518.09
2022-12-04T09:20:00.965Z,98521.16
2022-12-04T09:21:11.747Z,98516.84
2022-12-04T09:22:18.150Z,98519.22
2022-12-04T09:23:22.883Z,98519.47
2022-12-04T09:24:29.377Z,98520.44
2022-12-04T09:25:37.137Z,98517.63
2022-12-04T09:26:43.585Z,98517.13
2022-12-04T09:27:49.925Z,98513.06
2022-12-04T09:28:59.040Z,98519.09
2022-12-04T09:30:05.526Z,98518.03
2022-12-04T09:31:10.453Z,98512.47
2022-12-04T09:32:17.111Z,98507.94
2022-12-04T09:33:22.085Z,98511.53
2022-12-04T09:34:29.088Z,98503.94
2022-12-04T09:35:36.156Z,98514.91
2022-12-04T09:36:44.128Z,98510.16
2022-12-04T09:37:48.539Z,98513.50
2022-12-04T09:38:57.697Z,98503.94
2022-12-04T09:40:04.483Z,98498.94
2022-12-04T09:42:01.117Z,98504.78
2022-12-04T09:43:32.240Z,98503.28
2022-12-04T09:44:48.927Z,98501.09
2022-12-04T09:46:03.238Z,98506.34
2022-12-04T09:47:28.438Z,98509.66
2022-12-04T09:48:40.167Z,98502.03
2022-12-04T09:49:56.731Z,98501.31
2022-12-04T09:51:17.540Z,98492.59
2022-12-04T09:52:47.649Z,98493.81
2022-12-04T09:54:08.351Z,98487.28
2022-12-04T09:55:24.971Z,98488.69
2022-12-04T09:56:32.764Z,98491.31
2022-12-04T09:57:47.340Z,98491.69
2022-12-04T09:59:13.287Z,98498.41
2022-12-04T10:00:24.065Z,98496.84
2022-12-04T10:01:46.641Z,98494.50
2022-12-04T10:03:00.669Z,98493.19
2022-12-04T10:04:06.833Z,98498.31
2022-12-04T10:05:23.755Z,98488.53
2022-12-04T10:06:43.955Z,98498.22
2022-12-04T10:08:12.679Z,98504.69
2022-12-04T10:09:31.473Z,98505.78
2022-12-04T10:10:48.217Z,98501.34
2022-12-04T10:12:10.419Z,98506.84
2022-12-04T10:14:18.181Z,98492.66
2022-12-04T10:15:36.132Z,98499.72
2022-12-04T10:17:14.320Z,98503.91
2022-12-04T10:18:41.390Z,98505.94
2022-12-04T10:20:05.734Z,98500.44
2022-12-04T10:21:38.699Z,98497.34
2022-12-04T10:23:12.295Z,98493.31
2022-12-04T10:24:43.384Z,98494.97
2022-12-04T10:25:55.115Z,98490.19
2022-12-04T10:27:14.759Z,98499.63
2022-12-04T10:28:35.082Z,98485.31
2022-12-04T10:29:52.379Z,98483.28
2022-12-04T10:31:05.952Z,98484.72
2022-12-04T10:32:25.144Z,98484.00
2022-12-04T10:33:41.869Z,98487.81
2022-12-04T10:34:51.437Z,98483.28
2022-12-04T10:35:56.516Z,98480.56
2022-12-04T10:37:17.008Z,98482.44
2022-12-04T10:38:41.179Z,98480.66
2022-12-04T10:39:58.378Z,98481.84
2022-12-04T10:41:15.755Z,98483.28
2022-12-04T10:42:39.749Z,98478.84
2022-12-04T10:43:53.167Z,98479.34
2022-12-04T10:45:05.556Z,98476.13
2022-12-04T10:46:19.338Z,98480.66
2022-12-04T10:47:29.385Z,98466.91
2022-12-04T10:48:43.566Z,98475.88
2022-12-04T10:50:05.499Z,98479.81
2022-12-04T10:51:19.106Z,98468.81
2022-12-04T10:52:26.550Z,98463.81
2022-12-04T10:53:39.130Z,98474.69
2022-12-04T10:54:55.919Z,98465.63
2022-12-04T10:56:18.524Z,98472.44
2022-12-04T10:57:23.725Z,98476.63
2022-12-04T10:58:33.697Z,98475.50
2022-12-04T10:59:56.105Z,98467.75
2022-12-04T11:01:11.488Z,98471.81
2022-12-04T11:02:27.687Z,98466.56
2022-12-04T11:03:32.846Z,98467.53
2022-12-04T11:04:40.338Z,98466.44
2022-12-04T11:05:58.024Z,98466.94
2022-12-04T11:07:11.508Z,98460.59
2022-12-04T11:08:29.214Z,98459.41
2022-12-04T11:09:44.981Z,98460.38
2022-12-04T11:11:04.576Z,98458.91
2022-12-04T11:12:25.965Z,98462.03
2022-12-04T11:13:35.145Z,98472.28
2022-12-04T11:14:46.797Z,98456.03
2022-12-04T11:15:56.255Z,98458.09
2022-12-04T11:17:09.895Z,98456.78
2022-12-04T11:18:25.123Z,98449.13
2022-12-04T11:19:38.260Z,98463.72
2022-12-04T11:20:51.588Z,98463.59
2022-12-04T11:22:07.281Z,98459.50
2022-12-04T11:23:20.700Z,98459.41
2022-12-04T11:24:37.727Z,98458.31
2022-12-04T11:25:51.764Z,98447.69
2022-12-04T11:26:58.863Z,98453.44
2022-12-04T11:28:41.321Z,98446.50
2022-12-04T11:29:53.109Z,98454.16
2022-12-04T11:31:06.094Z,98457.00
2022-12-04T11:32:28.522Z,98460.47
2022-12-04T11:33:48.049Z,98457.84
2022-12-04T11:35:06.976Z,98446.63
2022-12-04T11:36:27.267Z,98457.97
2022-12-04T11:37:45.164Z,98453.78
2022-12-04T11:39:05.843Z,98455.94
2022-12-04T11:40:23.653Z,98443.63
2022-12-04T11:41:32.428Z,98447.22
2022-12-04T11:42:40.049Z,98441.97
2022-12-04T11:43:58.208Z,98443.88
2022-12-04T11:45:25.842Z,98447.47
2022-12-04T11:46:40.917Z,98449.50
2022-12-04T11:47:58.408Z,98448.28
2022-12-04T11:49:06.936Z,98444.84
2022-12-04T11:50:34.030Z,98442.91
2022-12-04T11:52:08.025Z,98442.69
2022-12-04T11:53:26.709Z,98437.78
2022-12-04T11:54:55.643Z,98437.88
2022-12-04T11:56:35.972Z,98444.97
2022-12-04T11:58:05.901Z,98439.09
2022-12-04T11:59:50.272Z,98442.53
2022-12-04T12:01:17.031Z,98444.25
2022-12-04T12:02:47.741Z,98436.34
2022-12-04T12:04:50.089Z,98434.19
2022-12-04T12:06:38.079Z,98443.72
2022-12-04T12:08:17.905Z,98441.19
2022-12-04T12:09:59.582Z,98435.66
2022-12-04T12:11:26.296Z,98439.97
2022-12-04T12:13:09.447Z,98437.91
2022-12-04T12:14:35.742Z,98442.59
2022-12-04T12:16:00.220Z,98436.75
2022-12-04T12:17:22.192Z,98437.84
2022-12-04T12:19:11.531Z,98439.56
2022-12-04T12:20:31.381Z,98437.53
2022-12-04T12:22:00.658Z,98437.03
2022-12-04T12:23:49.670Z,98442.41
2022-12-04T12:25:16.432Z,98442.28
2022-12-04T12:26:24.657Z,98442.50
2022-12-04T12:28:00.306Z,98452.78
2022-12-04T12:29:40.224Z,98440.00
2022-12-04T12:31:18.745Z,98444.81
2022-12-04T12:32:55.625Z,98454.25
2022-12-04T12:34:19.725Z,98448.28
2022-12-04T12:35:41.167Z,98448.28
2022-12-04T12:37:00.891Z,98444.91
2022-12-04T12:38:21.700Z,98450.78
2022-12-04T12:39:43.195Z,98441.84
2022-12-04T12:41:02.667Z,98442.09
2022-12-04T12:42:24.572Z,98445.53
2022-12-04T12:43:36.119Z,98437.75
2022-12-04T12:45:03.928Z,98438.63
2022-12-04T12:46:20.168Z,98444.69
2022-12-04T12:47:32.765Z,98438.84
2022-12-04T12:48:57.944Z,98435.84
2022-12-04T12:50:24.371Z,98434.69
2022-12-04T12:51:41.230Z,98431.66
2022-12-04T12:53:05.695Z,98434.50
2022-12-04T12:54:34.806Z,98436.44
2022-12-04T12:55:50.345Z,98431.91
2022-12-04T12:57:09.235Z,98431.44
2022-12-04T12:58:29.561Z,98434.03
2022-12-04T12:59:37.872Z,98437.97
2022-12-04T13:00:53.340Z,98436.63
2022-12-04T13:02:08.950Z,98429.13
2022-12-04T13:03:36.516Z,98432.25
2022-12-04T13:04:55.220Z,98434.88
2022-12-04T13:06:18.970Z,98429.94
2022-12-04T13:07:43.635Z,98437.75
2022-12-04T13:09:26.641Z,98439.31
2022-12-04T13:10:47.824Z,98436.53
2022-12-04T13:12:19.826Z,98437.50
2022-12-04T13:13:37.866Z,98438.94
2022-12-04T13:14:45.914Z,98436.44
2022-12-04T13:16:11.949Z,98430.44
2022-12-04T13:17:44.468Z,98424.69
2022-12-04T13:19:08.131Z,98431.75
2022-12-04T13:20:27.793Z,98433.34
2022-12-04T13:21:51.404Z,98431.66
2022-12-04T13:23:26.021Z,98438.72
2022-12-04T13:25:09.321Z,98432.72
2022-12-04T13:26:49.005Z,98436.47
2022-12-04T13:28:17.715Z,98435.53
2022-12-04T13:29:57.889Z,98441.72
2022-12-04T13:31:25.189Z,98435.03
2022-12-04T13:33:29.990Z,98439.34
2022-12-04T13:35:06.043Z,98425.47
2022-12-04T13:36:52.062Z,98421.06
2022-12-04T13:38:32.887Z,98417.72
2022-12-04T13:40:35.112Z,98423.91
2022-12-04T13:41:46.185Z,98427.63
2022-12-04T13:42:50.269Z,98423.91
2022-12-04T13:44:02.847Z,98414.97
2022-12-04T13:45:33.550Z,98424.03
2022-12-04T13:46:56.268Z,98428.34
2022-12-04T13:48:06.474Z,98423.22
2022-12-04T13:49:32.151Z,98420.34
2022-12-04T13:50:41.091Z,98427.38
2022-12-04T13:51:49.220Z,98431.47
2022-12-04T13:52:55.302Z,98424.78
2022-12-04T13:54:31.853Z,98431.44
2022-12-04T13:55:46.085Z,98433.59
2022-12-04T13:57:13.736Z,98437.28
2022-12-04T13:58:35.133Z,98433.81
2022-12-04T13:59:43.616Z,98435.50
2022-12-04T14:01:13.380Z,98436.09
2022-12-04T14:02:36.365Z,98434.31
2022-12-04T14:03:55.771Z,98441.69
2022-12-04T14:05:44.305Z,98434.56
2022-12-04T14:06:53.838Z,98434.31
2022-12-04T14:08:24.099Z,98437.41
2022-12-04T14:09:53.477Z,98437.88
2022-12-04T14:11:11.273Z,98435.03
2022-12-04T14:12:33.156Z,98433.56
2022-12-04T14:13:57.402Z,98440.72
2022-12-04T14:15:29.723Z,98445.38
2022-12-04T14:16:51.161Z,98433.44
2022-12-04T14:18:07.955Z,98434.16
2022-12-04T14:19:36.222Z,98445.03
2022-12-04T14:20:45.392Z,98433.81
2022-12-04T14:21:54.357Z,98441.69
2022-12-04T14:23:27.804Z,98437.16
2022-12-04T14:24:48.488Z,98438.81
2022-12-04T14:25:58.120Z,98433.81